sensor_id;sensor_type;location;lat;lon;timestamp;P1;durP1;ratioP1;P2;durP2;ratioP2
43744;SDS011;29359;53.048;8.732;2022-09-02T00:01:33;3.58;;;0.50;;
43744;SDS011;29359;53.048;8.732;2022-09-02T00:05:39;0.85;;;0.50;;
43744;SDS011;29359;53.048;8.732;2022-09-02T00:07:41;2.05;;;0.40;;
43744;SDS011;29359;53.048;8.732;2022-09-02T00:09:43;0.40;;;0.40;;
43744;SDS011;29359;53.048;8.732;2022-09-02T00:11:45;0.90;;;0.50;;
43744;SDS011;29359;53.048;8.732;2022-09-02T00:13:49;2.58;;;1.00;;
43744;SDS011;29359;53.048;8.732;2022-09-02T00:15:50;3.00;;;0.50;;
43744;SDS011;29359;53.048;8.732;2022-09-02T00:17:52;0.60;;;0.50;;
43744;SDS011;29359;53.048;8.732;2022-09-02T00:19:54;3.70;;;0.50;;
43744;SDS011;29359;53.048;8.732;2022-09-02T00:21:57;2.85;;;0.50;;
43744;SDS011;29359;53.048;8.732;2022-09-02T00:24:00;1.00;;;0.55;;
43744;SDS011;29359;53.048;8.732;2022-09-02T00:26:03;3.60;;;0.70;;
43744;SDS011;29359;53.048;8.732;2022-09-02T00:28:05;1.50;;;0.40;;
43744;SDS011;29359;53.048;8.732;2022-09-02T00:30:07;0.70;;;0.50;;
43744;SDS011;29359;53.048;8.732;2022-09-02T00:32:09;5.38;;;0.43;;
43744;SDS011;29359;53.048;8.732;2022-09-02T00:34:11;1.52;;;0.70;;
43744;SDS011;29359;53.048;8.732;2022-09-02T00:36:13;2.72;;;0.60;;
43744;SDS011;29359;53.048;8.732;2022-09-02T00:38:15;1.38;;;0.50;;
43744;SDS011;29359;53.048;8.732;2022-09-02T00:40:17;0.52;;;0.47;;
43744;SDS011;29359;53.048;8.732;2022-09-02T00:42:19;1.05;;;0.50;;
43744;SDS011;29359;53.048;8.732;2022-09-02T00:44:22;2.03;;;0.40;;
43744;SDS011;29359;53.048;8.732;2022-09-02T00:46:25;3.03;;;0.60;;
43744;SDS011;29359;53.048;8.732;2022-09-02T00:48:31;4.75;;;0.60;;
43744;SDS011;29359;53.048;8.732;2022-09-02T00:50:34;2.78;;;0.70;;
43744;SDS011;29359;53.048;8.732;2022-09-02T00:52:39;1.33;;;0.50;;
43744;SDS011;29359;53.048;8.732;2022-09-02T00:54:46;2.17;;;0.45;;
43744;SDS011;29359;53.048;8.732;2022-09-02T00:56:52;1.33;;;0.50;;
43744;SDS011;29359;53.048;8.732;2022-09-02T00:58:56;0.40;;;0.40;;
43744;SDS011;29359;53.048;8.732;2022-09-02T01:00:59;0.43;;;0.43;;
43744;SDS011;29359;53.048;8.732;2022-09-02T01:03:03;1.15;;;0.50;;
43744;SDS011;29359;53.048;8.732;2022-09-02T01:05:11;0.47;;;0.40;;
43744;SDS011;29359;53.048;8.732;2022-09-02T01:07:14;0.70;;;0.55;;
43744;SDS011;29359;53.048;8.732;2022-09-02T01:09:16;2.20;;;0.50;;
43744;SDS011;29359;53.048;8.732;2022-09-02T01:11:18;1.13;;;0.52;;
43744;SDS011;29359;53.048;8.732;2022-09-02T01:13:22;0.60;;;0.55;;
43744;SDS011;29359;53.048;8.732;2022-09-02T01:15:28;1.45;;;0.50;;
43744;SDS011;29359;53.048;8.732;2022-09-02T01:17:31;1.15;;;0.50;;
43744;SDS011;29359;53.048;8.732;2022-09-02T01:19:36;1.17;;;0.50;;
43744;SDS011;29359;53.048;8.732;2022-09-02T01:21:44;0.88;;;0.60;;
43744;SDS011;29359;53.048;8.732;2022-09-02T01:23:47;1.85;;;0.35;;
43744;SDS011;29359;53.048;8.732;2022-09-02T01:25:51;1.58;;;0.57;;
43744;SDS011;29359;53.048;8.732;2022-09-02T01:27:53;1.27;;;0.50;;
43744;SDS011;29359;53.048;8.732;2022-09-02T01:29:59;5.53;;;1.00;;
43744;SDS011;29359;53.048;8.732;2022-09-02T01:32:01;1.65;;;1.05;;
43744;SDS011;29359;53.048;8.732;2022-09-02T01:34:03;1.17;;;0.65;;
43744;SDS011;29359;53.048;8.732;2022-09-02T01:36:06;0.60;;;0.45;;
43744;SDS011;29359;53.048;8.732;2022-09-02T01:38:08;0.55;;;0.38;;
43744;SDS011;29359;53.048;8.732;2022-09-02T01:40:12;0.60;;;0.60;;
43744;SDS011;29359;53.048;8.732;2022-09-02T01:42:17;4.25;;;0.70;;
43744;SDS011;29359;53.048;8.732;2022-09-02T01:44:19;1.20;;;0.60;;
43744;SDS011;29359;53.048;8.732;2022-09-02T01:46:21;1.70;;;0.60;;
43744;SDS011;29359;53.048;8.732;2022-09-02T01:48:23;2.75;;;0.47;;
43744;SDS011;29359;53.048;8.732;2022-09-02T01:50:25;1.70;;;0.50;;
43744;SDS011;29359;53.048;8.732;2022-09-02T01:52:27;0.93;;;0.70;;
43744;SDS011;29359;53.048;8.732;2022-09-02T01:54:29;1.48;;;0.50;;
43744;SDS011;29359;53.048;8.732;2022-09-02T01:56:31;2.47;;;0.60;;
43744;SDS011;29359;53.048;8.732;2022-09-02T01:58:32;2.05;;;0.65;;
43744;SDS011;29359;53.048;8.732;2022-09-02T02:00:34;3.67;;;0.73;;
43744;SDS011;29359;53.048;8.732;2022-09-02T02:02:36;0.60;;;0.60;;
43744;SDS011;29359;53.048;8.732;2022-09-02T02:04:38;3.67;;;0.60;;
43744;SDS011;29359;53.048;8.732;2022-09-02T02:06:40;1.38;;;1.17;;
43744;SDS011;29359;53.048;8.732;2022-09-02T02:08:43;0.73;;;0.70;;
43744;SDS011;29359;53.048;8.732;2022-09-02T02:10:45;1.45;;;0.60;;
43744;SDS011;29359;53.048;8.732;2022-09-02T02:12:47;1.58;;;0.63;;
43744;SDS011;29359;53.048;8.732;2022-09-02T02:14:49;0.65;;;0.50;;
43744;SDS011;29359;53.048;8.732;2022-09-02T02:16:51;1.35;;;0.73;;
43744;SDS011;29359;53.048;8.732;2022-09-02T02:18:52;0.88;;;0.43;;
43744;SDS011;29359;53.048;8.732;2022-09-02T02:20:54;0.98;;;0.43;;
43744;SDS011;29359;53.048;8.732;2022-09-02T02:22:55;2.50;;;0.55;;
43744;SDS011;29359;53.048;8.732;2022-09-02T02:24:57;2.28;;;0.52;;
43744;SDS011;29359;53.048;8.732;2022-09-02T02:26:59;4.68;;;0.63;;
43744;SDS011;29359;53.048;8.732;2022-09-02T02:29:00;1.08;;;0.80;;
43744;SDS011;29359;53.048;8.732;2022-09-02T02:31:02;1.45;;;0.70;;
43744;SDS011;29359;53.048;8.732;2022-09-02T02:33:04;0.77;;;0.50;;
43744;SDS011;29359;53.048;8.732;2022-09-02T02:35:05;5.28;;;0.50;;
43744;SDS011;29359;53.048;8.732;2022-09-02T02:37:07;4.15;;;0.68;;
43744;SDS011;29359;53.048;8.732;2022-09-02T02:39:12;0.70;;;0.70;;
43744;SDS011;29359;53.048;8.732;2022-09-02T02:41:14;2.40;;;0.50;;
43744;SDS011;29359;53.048;8.732;2022-09-02T02:43:16;1.65;;;0.60;;
43744;SDS011;29359;53.048;8.732;2022-09-02T02:45:17;0.60;;;0.60;;
43744;SDS011;29359;53.048;8.732;2022-09-02T02:47:19;0.50;;;0.47;;
43744;SDS011;29359;53.048;8.732;2022-09-02T02:49:21;1.38;;;0.50;;
43744;SDS011;29359;53.048;8.732;2022-09-02T02:51:23;2.22;;;0.85;;
43744;SDS011;29359;53.048;8.732;2022-09-02T02:53:25;3.53;;;0.60;;
43744;SDS011;29359;53.048;8.732;2022-09-02T02:55:29;0.80;;;0.68;;
43744;SDS011;29359;53.048;8.732;2022-09-02T02:57:32;2.90;;;0.70;;
43744;SDS011;29359;53.048;8.732;2022-09-02T02:59:34;1.13;;;0.50;;
43744;SDS011;29359;53.048;8.732;2022-09-02T03:01:37;0.70;;;0.60;;
43744;SDS011;29359;53.048;8.732;2022-09-02T03:03:39;0.60;;;0.60;;
43744;SDS011;29359;53.048;8.732;2022-09-02T03:05:42;3.28;;;0.63;;
43744;SDS011;29359;53.048;8.732;2022-09-02T03:07:47;0.65;;;0.65;;
43744;SDS011;29359;53.048;8.732;2022-09-02T03:09:49;0.50;;;0.50;;
43744;SDS011;29359;53.048;8.732;2022-09-02T03:11:50;0.95;;;0.60;;
43744;SDS011;29359;53.048;8.732;2022-09-02T03:13:52;0.80;;;0.40;;
43744;SDS011;29359;53.048;8.732;2022-09-02T03:15:54;5.10;;;0.60;;
43744;SDS011;29359;53.048;8.732;2022-09-02T03:17:56;3.70;;;0.60;;
43744;SDS011;29359;53.048;8.732;2022-09-02T03:19:58;0.57;;;0.45;;
43744;SDS011;29359;53.048;8.732;2022-09-02T03:21:59;0.73;;;0.60;;
43744;SDS011;29359;53.048;8.732;2022-09-02T03:24:01;1.65;;;0.60;;
43744;SDS011;29359;53.048;8.732;2022-09-02T03:26:07;2.83;;;0.60;;
43744;SDS011;29359;53.048;8.732;2022-09-02T03:28:11;0.65;;;0.63;;
43744;SDS011;29359;53.048;8.732;2022-09-02T03:30:14;1.48;;;0.60;;
43744;SDS011;29359;53.048;8.732;2022-09-02T03:32:21;0.77;;;0.50;;
43744;SDS011;29359;53.048;8.732;2022-09-02T03:34:26;1.75;;;0.65;;
43744;SDS011;29359;53.048;8.732;2022-09-02T03:36:30;0.80;;;0.80;;
43744;SDS011;29359;53.048;8.732;2022-09-02T03:38:34;1.05;;;0.63;;
43744;SDS011;29359;53.048;8.732;2022-09-02T03:40:36;4.63;;;0.60;;
43744;SDS011;29359;53.048;8.732;2022-09-02T03:42:38;4.53;;;1.00;;
43744;SDS011;29359;53.048;8.732;2022-09-02T03:44:43;0.75;;;0.43;;
43744;SDS011;29359;53.048;8.732;2022-09-02T03:46:44;0.88;;;0.63;;
43744;SDS011;29359;53.048;8.732;2022-09-02T03:48:47;1.08;;;0.70;;
43744;SDS011;29359;53.048;8.732;2022-09-02T03:50:51;1.42;;;0.50;;
43744;SDS011;29359;53.048;8.732;2022-09-02T03:52:53;5.60;;;0.70;;
43744;SDS011;29359;53.048;8.732;2022-09-02T03:54:55;1.27;;;0.85;;
43744;SDS011;29359;53.048;8.732;2022-09-02T03:56:56;2.25;;;0.70;;
43744;SDS011;29359;53.048;8.732;2022-09-02T03:58:58;1.90;;;0.70;;
43744;SDS011;29359;53.048;8.732;2022-09-02T04:01:01;1.23;;;0.70;;
43744;SDS011;29359;53.048;8.732;2022-09-02T04:03:02;0.93;;;0.60;;
43744;SDS011;29359;53.048;8.732;2022-09-02T04:05:04;1.67;;;0.60;;
43744;SDS011;29359;53.048;8.732;2022-09-02T04:07:15;1.63;;;0.80;;
43744;SDS011;29359;53.048;8.732;2022-09-02T04:09:17;1.15;;;0.70;;
43744;SDS011;29359;53.048;8.732;2022-09-02T04:11:19;2.15;;;0.60;;
43744;SDS011;29359;53.048;8.732;2022-09-02T04:13:23;3.85;;;1.15;;
43744;SDS011;29359;53.048;8.732;2022-09-02T04:15:24;3.28;;;1.55;;
43744;SDS011;29359;53.048;8.732;2022-09-02T04:17:26;2.80;;;2.38;;
43744;SDS011;29359;53.048;8.732;2022-09-02T04:19:28;4.95;;;2.28;;
43744;SDS011;29359;53.048;8.732;2022-09-02T04:21:31;3.10;;;2.38;;
43744;SDS011;29359;53.048;8.732;2022-09-02T04:23:34;1.60;;;1.50;;
43744;SDS011;29359;53.048;8.732;2022-09-02T04:25:40;1.42;;;1.20;;
43744;SDS011;29359;53.048;8.732;2022-09-02T04:27:43;2.25;;;1.02;;
43744;SDS011;29359;53.048;8.732;2022-09-02T04:29:44;5.95;;;1.00;;
43744;SDS011;29359;53.048;8.732;2022-09-02T04:31:46;1.42;;;1.10;;
43744;SDS011;29359;53.048;8.732;2022-09-02T04:33:47;4.10;;;1.00;;
43744;SDS011;29359;53.048;8.732;2022-09-02T04:35:49;1.40;;;0.98;;
43744;SDS011;29359;53.048;8.732;2022-09-02T04:37:52;0.80;;;0.80;;
43744;SDS011;29359;53.048;8.732;2022-09-02T04:39:53;2.78;;;0.80;;
43744;SDS011;29359;53.048;8.732;2022-09-02T04:41:55;5.18;;;1.00;;
43744;SDS011;29359;53.048;8.732;2022-09-02T04:43:57;1.80;;;1.00;;
43744;SDS011;29359;53.048;8.732;2022-09-02T04:45:59;4.22;;;0.85;;
43744;SDS011;29359;53.048;8.732;2022-09-02T04:48:03;0.77;;;0.75;;
43744;SDS011;29359;53.048;8.732;2022-09-02T04:50:05;1.55;;;0.95;;
43744;SDS011;29359;53.048;8.732;2022-09-02T04:52:07;3.72;;;0.90;;
43744;SDS011;29359;53.048;8.732;2022-09-02T04:54:10;6.05;;;0.80;;
43744;SDS011;29359;53.048;8.732;2022-09-02T04:56:13;2.05;;;1.08;;
43744;SDS011;29359;53.048;8.732;2022-09-02T04:58:17;5.07;;;1.00;;
43744;SDS011;29359;53.048;8.732;2022-09-02T05:00:18;2.53;;;1.15;;
43744;SDS011;29359;53.048;8.732;2022-09-02T05:02:20;2.17;;;0.90;;
43744;SDS011;29359;53.048;8.732;2022-09-02T05:04:23;6.47;;;1.00;;
43744;SDS011;29359;53.048;8.732;2022-09-02T05:06:25;3.53;;;0.95;;
43744;SDS011;29359;53.048;8.732;2022-09-02T05:08:28;1.00;;;0.90;;
43744;SDS011;29359;53.048;8.732;2022-09-02T05:10:30;3.22;;;0.93;;
43744;SDS011;29359;53.048;8.732;2022-09-02T05:12:33;4.38;;;1.40;;
43744;SDS011;29359;53.048;8.732;2022-09-02T05:14:35;7.82;;;1.45;;
43744;SDS011;29359;53.048;8.732;2022-09-02T05:16:37;6.65;;;1.08;;
43744;SDS011;29359;53.048;8.732;2022-09-02T05:18:41;6.15;;;1.20;;
43744;SDS011;29359;53.048;8.732;2022-09-02T05:20:42;2.33;;;1.00;;
43744;SDS011;29359;53.048;8.732;2022-09-02T05:22:44;4.70;;;1.10;;
43744;SDS011;29359;53.048;8.732;2022-09-02T05:24:46;3.38;;;1.40;;
43744;SDS011;29359;53.048;8.732;2022-09-02T05:26:47;5.40;;;1.10;;
43744;SDS011;29359;53.048;8.732;2022-09-02T05:28:51;1.90;;;1.00;;
43744;SDS011;29359;53.048;8.732;2022-09-02T05:30:52;2.05;;;1.27;;
43744;SDS011;29359;53.048;8.732;2022-09-02T05:32:54;3.15;;;1.10;;
43744;SDS011;29359;53.048;8.732;2022-09-02T05:34:56;2.17;;;1.30;;
43744;SDS011;29359;53.048;8.732;2022-09-02T05:36:58;4.70;;;1.30;;
43744;SDS011;29359;53.048;8.732;2022-09-02T05:38:59;4.70;;;1.30;;
43744;SDS011;29359;53.048;8.732;2022-09-02T05:41:05;6.55;;;1.20;;
43744;SDS011;29359;53.048;8.732;2022-09-02T05:43:08;1.67;;;1.05;;
43744;SDS011;29359;53.048;8.732;2022-09-02T05:45:09;4.60;;;1.30;;
43744;SDS011;29359;53.048;8.732;2022-09-02T05:47:14;2.92;;;1.10;;
43744;SDS011;29359;53.048;8.732;2022-09-02T05:49:15;1.52;;;1.27;;
43744;SDS011;29359;53.048;8.732;2022-09-02T05:51:22;1.95;;;1.20;;
43744;SDS011;29359;53.048;8.732;2022-09-02T05:53:24;3.75;;;1.30;;
43744;SDS011;29359;53.048;8.732;2022-09-02T05:55:27;2.78;;;1.10;;
43744;SDS011;29359;53.048;8.732;2022-09-02T05:57:28;5.03;;;1.30;;
43744;SDS011;29359;53.048;8.732;2022-09-02T05:59:31;5.22;;;1.20;;
43744;SDS011;29359;53.048;8.732;2022-09-02T06:01:35;4.05;;;1.30;;
43744;SDS011;29359;53.048;8.732;2022-09-02T06:03:37;2.55;;;1.05;;
43744;SDS011;29359;53.048;8.732;2022-09-02T06:05:39;4.30;;;1.40;;
43744;SDS011;29359;53.048;8.732;2022-09-02T06:07:42;7.05;;;1.45;;
43744;SDS011;29359;53.048;8.732;2022-09-02T06:09:44;1.60;;;1.13;;
43744;SDS011;29359;53.048;8.732;2022-09-02T06:11:46;2.03;;;1.17;;
43744;SDS011;29359;53.048;8.732;2022-09-02T06:13:49;1.80;;;1.33;;
43744;SDS011;29359;53.048;8.732;2022-09-02T06:15:52;5.30;;;1.52;;
43744;SDS011;29359;53.048;8.732;2022-09-02T06:17:54;4.32;;;1.67;;
43744;SDS011;29359;53.048;8.732;2022-09-02T06:19:59;8.50;;;1.55;;
43744;SDS011;29359;53.048;8.732;2022-09-02T06:22:01;5.18;;;1.50;;
43744;SDS011;29359;53.048;8.732;2022-09-02T06:24:04;2.42;;;1.60;;
43744;SDS011;29359;53.048;8.732;2022-09-02T06:26:08;3.40;;;1.80;;
43744;SDS011;29359;53.048;8.732;2022-09-02T06:28:11;3.65;;;2.25;;
43744;SDS011;29359;53.048;8.732;2022-09-02T06:30:13;6.22;;;2.28;;
43744;SDS011;29359;53.048;8.732;2022-09-02T06:32:15;6.53;;;2.78;;
43744;SDS011;29359;53.048;8.732;2022-09-02T06:34:18;4.35;;;3.00;;
43744;SDS011;29359;53.048;8.732;2022-09-02T06:36:22;5.90;;;3.00;;
43744;SDS011;29359;53.048;8.732;2022-09-02T06:38:28;4.68;;;3.30;;
43744;SDS011;29359;53.048;8.732;2022-09-02T06:40:30;10.77;;;3.17;;
43744;SDS011;29359;53.048;8.732;2022-09-02T06:42:32;4.80;;;3.47;;
43744;SDS011;29359;53.048;8.732;2022-09-02T06:44:33;5.97;;;3.10;;
43744;SDS011;29359;53.048;8.732;2022-09-02T06:46:36;3.90;;;3.28;;
43744;SDS011;29359;53.048;8.732;2022-09-02T06:48:40;4.85;;;3.22;;
43744;SDS011;29359;53.048;8.732;2022-09-02T06:50:42;9.40;;;4.30;;
43744;SDS011;29359;53.048;8.732;2022-09-02T06:52:46;6.70;;;5.22;;
43744;SDS011;29359;53.048;8.732;2022-09-02T06:54:48;6.85;;;4.53;;
43744;SDS011;29359;53.048;8.732;2022-09-02T06:56:51;5.30;;;4.80;;
43744;SDS011;29359;53.048;8.732;2022-09-02T06:58:53;9.05;;;5.05;;
43744;SDS011;29359;53.048;8.732;2022-09-02T07:00:55;7.32;;;4.57;;
43744;SDS011;29359;53.048;8.732;2022-09-02T07:02:57;9.93;;;5.28;;
43744;SDS011;29359;53.048;8.732;2022-09-02T07:05:28;9.27;;;5.18;;
43744;SDS011;29359;53.048;8.732;2022-09-02T07:07:30;11.45;;;4.78;;
43744;SDS011;29359;53.048;8.732;2022-09-02T07:09:31;5.47;;;4.90;;
43744;SDS011;29359;53.048;8.732;2022-09-02T07:11:33;11.15;;;5.00;;
43744;SDS011;29359;53.048;8.732;2022-09-02T07:13:35;8.70;;;5.20;;
43744;SDS011;29359;53.048;8.732;2022-09-02T07:15:37;6.88;;;5.13;;
43744;SDS011;29359;53.048;8.732;2022-09-02T07:17:41;7.28;;;5.18;;
43744;SDS011;29359;53.048;8.732;2022-09-02T07:19:43;12.20;;;5.75;;
43744;SDS011;29359;53.048;8.732;2022-09-02T07:21:45;17.92;;;5.40;;
43744;SDS011;29359;53.048;8.732;2022-09-02T07:23:47;7.55;;;5.30;;
43744;SDS011;29359;53.048;8.732;2022-09-02T07:25:49;11.57;;;6.30;;
43744;SDS011;29359;53.048;8.732;2022-09-02T07:27:51;11.55;;;6.05;;
43744;SDS011;29359;53.048;8.732;2022-09-02T07:29:53;7.15;;;5.10;;
43744;SDS011;29359;53.048;8.732;2022-09-02T07:31:54;10.55;;;5.50;;
43744;SDS011;29359;53.048;8.732;2022-09-02T07:33:56;8.45;;;4.88;;
43744;SDS011;29359;53.048;8.732;2022-09-02T07:35:59;11.00;;;5.45;;
43744;SDS011;29359;53.048;8.732;2022-09-02T07:38:00;8.70;;;5.05;;
43744;SDS011;29359;53.048;8.732;2022-09-02T07:40:04;6.05;;;4.90;;
43744;SDS011;29359;53.048;8.732;2022-09-02T07:42:08;9.65;;;5.00;;
43744;SDS011;29359;53.048;8.732;2022-09-02T07:44:10;6.28;;;5.18;;
43744;SDS011;29359;53.048;8.732;2022-09-02T07:46:11;6.07;;;5.25;;
43744;SDS011;29359;53.048;8.732;2022-09-02T07:48:13;5.55;;;4.97;;
43744;SDS011;29359;53.048;8.732;2022-09-02T07:50:16;6.78;;;4.97;;
43744;SDS011;29359;53.048;8.732;2022-09-02T07:52:21;8.73;;;5.75;;
43744;SDS011;29359;53.048;8.732;2022-09-02T07:54:23;10.10;;;5.57;;
43744;SDS011;29359;53.048;8.732;2022-09-02T07:56:27;6.85;;;6.00;;
43744;SDS011;29359;53.048;8.732;2022-09-02T07:58:29;8.55;;;5.50;;
43744;SDS011;29359;53.048;8.732;2022-09-02T08:00:32;9.88;;;5.53;;
43744;SDS011;29359;53.048;8.732;2022-09-02T08:02:34;7.78;;;4.95;;
43744;SDS011;29359;53.048;8.732;2022-09-02T08:04:36;9.35;;;5.25;;
43744;SDS011;29359;53.048;8.732;2022-09-02T08:06:37;11.95;;;6.22;;
43744;SDS011;29359;53.048;8.732;2022-09-02T08:08:41;10.57;;;6.15;;
43744;SDS011;29359;53.048;8.732;2022-09-02T08:10:43;9.13;;;6.05;;
43744;SDS011;29359;53.048;8.732;2022-09-02T08:12:47;8.48;;;5.90;;
43744;SDS011;29359;53.048;8.732;2022-09-02T08:14:48;7.55;;;5.85;;
43744;SDS011;29359;53.048;8.732;2022-09-02T08:16:51;8.07;;;5.78;;
43744;SDS011;29359;53.048;8.732;2022-09-02T08:18:54;6.68;;;5.22;;
43744;SDS011;29359;53.048;8.732;2022-09-02T08:20:56;8.98;;;5.30;;
43744;SDS011;29359;53.048;8.732;2022-09-02T08:22:57;6.93;;;5.28;;
43744;SDS011;29359;53.048;8.732;2022-09-02T08:25:12;6.03;;;5.20;;
43744;SDS011;29359;53.048;8.732;2022-09-02T08:27:14;13.35;;;5.97;;
43744;SDS011;29359;53.048;8.732;2022-09-02T08:29:16;10.90;;;6.15;;
43744;SDS011;29359;53.048;8.732;2022-09-02T08:31:17;8.00;;;4.40;;
43744;SDS011;29359;53.048;8.732;2022-09-02T08:33:19;6.28;;;3.75;;
43744;SDS011;29359;53.048;8.732;2022-09-02T08:35:21;7.72;;;4.55;;
43744;SDS011;29359;53.048;8.732;2022-09-02T08:37:22;4.90;;;2.78;;
43744;SDS011;29359;53.048;8.732;2022-09-02T08:39:24;7.53;;;3.38;;
43744;SDS011;29359;53.048;8.732;2022-09-02T08:41:29;8.57;;;2.45;;
43744;SDS011;29359;53.048;8.732;2022-09-02T08:43:44;3.25;;;2.42;;
43744;SDS011;29359;53.048;8.732;2022-09-02T08:45:46;17.10;;;2.47;;
43744;SDS011;29359;53.048;8.732;2022-09-02T08:47:50;4.85;;;2.92;;
43744;SDS011;29359;53.048;8.732;2022-09-02T08:50:11;8.32;;;3.60;;
43744;SDS011;29359;53.048;8.732;2022-09-02T08:54:47;4.28;;;2.60;;
43744;SDS011;29359;53.048;8.732;2022-09-02T08:56:55;3.95;;;3.35;;
43744;SDS011;29359;53.048;8.732;2022-09-02T08:58:58;4.00;;;3.35;;
43744;SDS011;29359;53.048;8.732;2022-09-02T09:01:12;5.95;;;4.45;;
43744;SDS011;29359;53.048;8.732;2022-09-02T09:06:13;5.55;;;3.00;;
43744;SDS011;29359;53.048;8.732;2022-09-02T09:08:07;3.88;;;2.20;;
43744;SDS011;29359;53.048;8.732;2022-09-02T09:13:20;7.13;;;2.45;;
43744;SDS011;29359;53.048;8.732;2022-09-02T09:15:51;5.93;;;2.25;;
43744;SDS011;29359;53.048;8.732;2022-09-02T09:18:16;5.53;;;1.70;;
43744;SDS011;29359;53.048;8.732;2022-09-02T09:20:22;6.85;;;1.65;;
43744;SDS011;29359;53.048;8.732;2022-09-02T09:22:32;2.97;;;2.00;;
43744;SDS011;29359;53.048;8.732;2022-09-02T09:24:38;6.65;;;1.33;;
43744;SDS011;29359;53.048;8.732;2022-09-02T09:26:41;8.18;;;1.90;;
43744;SDS011;29359;53.048;8.732;2022-09-02T09:28:45;7.93;;;2.95;;
43744;SDS011;29359;53.048;8.732;2022-09-02T09:30:49;11.13;;;3.50;;
43744;SDS011;29359;53.048;8.732;2022-09-02T09:33:08;3.65;;;2.25;;
43744;SDS011;29359;53.048;8.732;2022-09-02T09:35:17;3.40;;;1.38;;
43744;SDS011;29359;53.048;8.732;2022-09-02T09:37:36;1.98;;;1.25;;
43744;SDS011;29359;53.048;8.732;2022-09-02T09:39:40;2.50;;;1.13;;
43744;SDS011;29359;53.048;8.732;2022-09-02T09:41:41;4.90;;;1.20;;
43744;SDS011;29359;53.048;8.732;2022-09-02T09:43:44;4.65;;;1.55;;
43744;SDS011;29359;53.048;8.732;2022-09-02T09:45:46;3.38;;;2.53;;
43744;SDS011;29359;53.048;8.732;2022-09-02T09:50:16;13.15;;;2.20;;
43744;SDS011;29359;53.048;8.732;2022-09-02T09:52:26;15.57;;;2.90;;
43744;SDS011;29359;53.048;8.732;2022-09-02T09:54:29;7.15;;;3.08;;
43744;SDS011;29359;53.048;8.732;2022-09-02T09:56:31;7.55;;;3.08;;
43744;SDS011;29359;53.048;8.732;2022-09-02T10:00:39;7.25;;;3.30;;
43744;SDS011;29359;53.048;8.732;2022-09-02T10:02:45;7.20;;;2.60;;
43744;SDS011;29359;53.048;8.732;2022-09-02T10:04:52;5.15;;;1.70;;
43744;SDS011;29359;53.048;8.732;2022-09-02T10:07:10;6.05;;;2.10;;
43744;SDS011;29359;53.048;8.732;2022-09-02T10:11:19;5.43;;;2.22;;
43744;SDS011;29359;53.048;8.732;2022-09-02T10:13:33;3.78;;;1.92;;
43744;SDS011;29359;53.048;8.732;2022-09-02T10:15:38;3.50;;;1.90;;
43744;SDS011;29359;53.048;8.732;2022-09-02T10:34:25;2.03;;;1.50;;
43744;SDS011;29359;53.048;8.732;2022-09-02T10:42:07;1.58;;;1.05;;
43744;SDS011;29359;53.048;8.732;2022-09-02T10:44:26;8.23;;;1.55;;
43744;SDS011;29359;53.048;8.732;2022-09-02T10:46:34;2.60;;;1.02;;
43744;SDS011;29359;53.048;8.732;2022-09-02T10:51:48;5.07;;;1.27;;
43744;SDS011;29359;53.048;8.732;2022-09-02T10:56:34;9.00;;;1.02;;
43744;SDS011;29359;53.048;8.732;2022-09-02T11:00:52;3.25;;;1.00;;
43744;SDS011;29359;53.048;8.732;2022-09-02T11:04:59;1.40;;;0.90;;
43744;SDS011;29359;53.048;8.732;2022-09-02T11:07:07;4.13;;;0.70;;
43744;SDS011;29359;53.048;8.732;2022-09-02T11:09:12;4.07;;;1.02;;
43744;SDS011;29359;53.048;8.732;2022-09-02T11:13:51;2.28;;;0.70;;
43744;SDS011;29359;53.048;8.732;2022-09-02T11:16:06;1.17;;;0.63;;
43744;SDS011;29359;53.048;8.732;2022-09-02T11:18:34;2.47;;;0.50;;
43744;SDS011;29359;53.048;8.732;2022-09-02T11:20:48;2.22;;;0.70;;
43744;SDS011;29359;53.048;8.732;2022-09-02T11:23:19;5.72;;;0.50;;
43744;SDS011;29359;53.048;8.732;2022-09-02T11:25:40;10.68;;;1.50;;
43744;SDS011;29359;53.048;8.732;2022-09-02T11:36:36;1.58;;;0.60;;
43744;SDS011;29359;53.048;8.732;2022-09-02T11:38:41;2.20;;;0.77;;
43744;SDS011;29359;53.048;8.732;2022-09-02T11:48:34;2.35;;;0.90;;
43744;SDS011;29359;53.048;8.732;2022-09-02T11:53:19;2.28;;;0.50;;
43744;SDS011;29359;53.048;8.732;2022-09-02T11:55:32;4.00;;;0.70;;
43744;SDS011;29359;53.048;8.732;2022-09-02T11:57:39;2.03;;;0.65;;
43744;SDS011;29359;53.048;8.732;2022-09-02T12:01:52;2.70;;;0.47;;
43744;SDS011;29359;53.048;8.732;2022-09-02T12:06:32;2.47;;;0.43;;
43744;SDS011;29359;53.048;8.732;2022-09-02T12:14:59;2.38;;;0.60;;
43744;SDS011;29359;53.048;8.732;2022-09-02T12:17:04;4.97;;;0.65;;
43744;SDS011;29359;53.048;8.732;2022-09-02T12:21:11;3.22;;;0.43;;
43744;SDS011;29359;53.048;8.732;2022-09-02T12:25:50;1.85;;;1.13;;
43744;SDS011;29359;53.048;8.732;2022-09-02T12:33:10;3.88;;;0.50;;
43744;SDS011;29359;53.048;8.732;2022-09-02T12:37:48;2.28;;;0.95;;
43744;SDS011;29359;53.048;8.732;2022-09-02T12:39:54;1.90;;;0.40;;
43744;SDS011;29359;53.048;8.732;2022-09-02T12:44:15;0.55;;;0.50;;
43744;SDS011;29359;53.048;8.732;2022-09-02T12:48:23;2.47;;;0.40;;
43744;SDS011;29359;53.048;8.732;2022-09-02T12:50:55;2.58;;;0.40;;
43744;SDS011;29359;53.048;8.732;2022-09-02T12:53:09;2.97;;;0.50;;
43744;SDS011;29359;53.048;8.732;2022-09-02T12:55:23;1.10;;;1.00;;
43744;SDS011;29359;53.048;8.732;2022-09-02T12:57:37;3.90;;;1.40;;
43744;SDS011;29359;53.048;8.732;2022-09-02T12:59:40;3.78;;;1.50;;
43744;SDS011;29359;53.048;8.732;2022-09-02T13:01:44;1.55;;;1.23;;
43744;SDS011;29359;53.048;8.732;2022-09-02T13:03:57;2.05;;;0.70;;
43744;SDS011;29359;53.048;8.732;2022-09-02T13:06:16;6.13;;;0.57;;
43744;SDS011;29359;53.048;8.732;2022-09-02T13:13:40;1.58;;;0.68;;
43744;SDS011;29359;53.048;8.732;2022-09-02T13:29:53;1.25;;;0.80;;
43744;SDS011;29359;53.048;8.732;2022-09-02T13:32:14;4.30;;;1.20;;
43744;SDS011;29359;53.048;8.732;2022-09-02T13:34:23;6.10;;;0.85;;
43744;SDS011;29359;53.048;8.732;2022-09-02T13:36:27;4.88;;;1.00;;
43744;SDS011;29359;53.048;8.732;2022-09-02T13:38:33;2.93;;;0.90;;
43744;SDS011;29359;53.048;8.732;2022-09-02T13:40:35;4.32;;;0.80;;
43744;SDS011;29359;53.048;8.732;2022-09-02T13:42:38;2.88;;;0.68;;
43744;SDS011;29359;53.048;8.732;2022-09-02T13:45:10;2.17;;;0.52;;
43744;SDS011;29359;53.048;8.732;2022-09-02T13:47:17;1.63;;;0.75;;
43744;SDS011;29359;53.048;8.732;2022-09-02T13:49:26;1.88;;;0.60;;
43744;SDS011;29359;53.048;8.732;2022-09-02T13:51:40;2.35;;;0.52;;
43744;SDS011;29359;53.048;8.732;2022-09-02T13:53:43;2.35;;;0.47;;
43744;SDS011;29359;53.048;8.732;2022-09-02T13:56:08;3.03;;;0.57;;
43744;SDS011;29359;53.048;8.732;2022-09-02T13:58:19;2.67;;;0.95;;
43744;SDS011;29359;53.048;8.732;2022-09-02T14:00:46;1.83;;;0.50;;
43744;SDS011;29359;53.048;8.732;2022-09-02T14:02:54;1.52;;;0.50;;
43744;SDS011;29359;53.048;8.732;2022-09-02T14:05:00;2.72;;;0.63;;
43744;SDS011;29359;53.048;8.732;2022-09-02T14:07:06;10.95;;;0.80;;
43744;SDS011;29359;53.048;8.732;2022-09-02T14:09:10;0.50;;;0.40;;
43744;SDS011;29359;53.048;8.732;2022-09-02T14:11:24;5.88;;;0.60;;
43744;SDS011;29359;53.048;8.732;2022-09-02T14:13:30;2.78;;;0.57;;
43744;SDS011;29359;53.048;8.732;2022-09-02T14:15:40;2.17;;;0.50;;
43744;SDS011;29359;53.048;8.732;2022-09-02T14:17:42;2.50;;;0.52;;
43744;SDS011;29359;53.048;8.732;2022-09-02T14:19:43;3.30;;;0.60;;
43744;SDS011;29359;53.048;8.732;2022-09-02T14:21:46;0.70;;;0.52;;
43744;SDS011;29359;53.048;8.732;2022-09-02T14:23:50;17.45;;;1.00;;
43744;SDS011;29359;53.048;8.732;2022-09-02T14:25:54;3.35;;;0.50;;
43744;SDS011;29359;53.048;8.732;2022-09-02T14:27:58;0.75;;;0.52;;
43744;SDS011;29359;53.048;8.732;2022-09-02T14:30:03;4.38;;;0.57;;